Time;durP1;ratioP1;P1;durP2;ratioP2;P2;SDS_P1;SDS_P2;PMS_P1;PMS_P2;Temp;Humidity;BMP_temperature;BMP_pressure;BME280_temperature;BME280_humidity;BME280_pressure;Samples;Min_cycle;Max_cycle;Signal;HPM_P1;HPM_P2
2022/02/12 00:02:06;;;;;;;10.25;3.60;;;8.90;51.50;;;;;;6214183;28;20037;-71
2022/02/12 00:05:08;;;;;;;10.70;4.13;;;8.80;51.50;;;;;;6229687;28;20041;-71
2022/02/12 00:08:09;;;;;;;8.07;3.03;;;8.80;51.50;;;;;;6214246;28;20504;-71
2022/02/12 00:11:10;;;;;;;6.72;3.03;;;8.80;51.50;;;;;;6211129;28;20157;-71
2022/02/12 00:14:11;;;;;;;12.55;3.95;;;8.80;51.50;;;;;;6215240;28;20021;-71
2022/02/12 00:17:11;;;;;;;5.68;3.03;;;8.80;51.60;;;;;;6231388;28;20029;-71
2022/02/12 00:20:13;;;;;;;7.10;3.38;;;8.80;51.60;;;;;;6208572;28;20026;-71
2022/02/12 00:23:16;;;;;;;6.40;3.17;;;8.80;51.70;;;;;;6214195;28;20062;-71
2022/02/12 00:26:20;;;;;;;12.80;3.75;;;8.80;51.80;;;;;;6209288;28;20058;-71
2022/02/12 00:29:21;;;;;;;5.93;2.97;;;8.70;51.90;;;;;;6226442;28;20029;-70
2022/02/12 00:32:22;;;;;;;7.57;3.33;;;8.60;52.60;;;;;;6216283;28;20108;-72
2022/02/12 00:35:23;;;;;;;11.68;4.40;;;8.50;52.30;;;;;;6230147;28;20029;-71
2022/02/12 00:38:58;;;;;;;8.68;3.35;;;8.40;52.50;;;;;;6219032;28;20058;-71
2022/02/12 00:41:59;;;;;;;12.35;4.30;;;8.40;52.80;;;;;;6235231;28;20026;-71
2022/02/12 00:45:00;;;;;;;9.85;3.88;;;8.30;52.90;;;;;;6219654;28;20053;-71
2022/02/12 00:48:01;;;;;;;5.07;3.33;;;8.20;53.10;;;;;;6214581;28;20034;-71
2022/02/12 00:51:02;;;;;;;10.35;3.42;;;8.20;53.10;;;;;;6217199;28;20054;-71
2022/02/12 00:54:05;;;;;;;9.68;3.35;;;8.20;53.30;;;;;;6218393;28;20034;-72
2022/02/12 00:57:05;;;;;;;10.50;3.78;;;8.10;53.40;;;;;;6216558;28;20026;-71
2022/02/12 01:00:07;;;;;;;7.93;3.38;;;8.10;54.00;;;;;;6215795;28;20061;-72
2022/02/12 01:03:08;;;;;;;12.35;4.07;;;8.10;53.50;;;;;;6219625;28;20056;-71
2022/02/12 01:06:09;;;;;;;7.40;3.72;;;8.10;53.60;;;;;;6216551;28;20030;-73
2022/02/12 01:09:10;;;;;;;7.30;3.28;;;8.10;53.50;;;;;;6218415;28;20029;-72
2022/02/12 01:12:11;;;;;;;12.68;3.83;;;8.10;53.50;;;;;;6216718;28;20030;-74
2022/02/12 01:15:12;;;;;;;12.57;3.70;;;8.10;53.50;;;;;;6219923;28;20140;-72
2022/02/12 01:18:50;;;;;;;6.63;3.22;;;8.20;53.50;;;;;;6215800;28;20429;-72
2022/02/12 01:21:51;;;;;;;9.00;3.97;;;8.20;53.40;;;;;;6213570;28;20058;-71
2022/02/12 01:24:52;;;;;;;6.68;2.88;;;8.20;53.30;;;;;;6218422;28;20093;-70
2022/02/12 01:27:53;;;;;;;11.40;3.92;;;8.20;53.20;;;;;;6234028;28;20392;-70
2022/02/12 01:30:54;;;;;;;8.18;3.35;;;8.30;53.10;;;;;;6218311;28;20018;-71
2022/02/12 01:33:55;;;;;;;6.07;2.92;;;8.30;53.10;;;;;;6220332;28;20026;-70
2022/02/12 01:36:56;;;;;;;4.32;2.60;;;8.30;53.10;;;;;;6218836;28;20034;-71
2022/02/12 01:39:57;;;;;;;7.40;3.05;;;8.20;53.00;;;;;;6217361;28;20053;-71
2022/02/12 01:43:02;;;;;;;7.70;3.70;;;8.20;53.00;;;;;;6231242;28;20034;-71
2022/02/12 01:46:03;;;;;;;8.45;3.65;;;8.10;53.10;;;;;;6214773;28;20042;-71
2022/02/12 01:49:04;;;;;;;8.15;3.05;;;8.10;53.30;;;;;;6216085;28;20102;-71
2022/02/12 01:52:09;;;;;;;6.65;2.90;;;8.10;53.40;;;;;;6213945;28;20034;-70
2022/02/12 01:55:11;;;;;;;6.97;2.97;;;8.00;53.50;;;;;;6213981;28;20402;-71
2022/02/12 01:58:39;;;;;;;5.32;3.10;;;8.00;53.50;;;;;;6217525;28;20619;-72
2022/02/12 02:01:40;;;;;;;5.07;2.15;;;8.00;53.60;;;;;;6219437;28;20351;-72
2022/02/12 02:04:42;;;;;;;8.10;2.90;;;7.90;53.60;;;;;;6205239;28;20018;-72
2022/02/12 02:07:43;;;;;;;7.03;3.22;;;7.90;53.60;;;;;;6218704;28;20026;-73
2022/02/12 02:10:45;;;;;;;7.65;3.35;;;7.90;53.60;;;;;;6221312;28;20388;-70
2022/02/12 02:13:46;;;;;;;5.88;2.67;;;7.90;53.70;;;;;;6211147;28;20029;-70
2022/02/12 02:16:48;;;;;;;7.85;3.65;;;7.90;53.80;;;;;;6236814;28;20639;-72
2022/02/12 02:19:49;;;;;;;11.75;3.30;;;7.90;53.80;;;;;;6202381;28;20030;-72
2022/02/12 02:22:57;;;;;;;5.72;2.90;;;7.90;53.90;;;;;;6218691;28;20040;-72
2022/02/12 02:25:59;;;;;;;4.55;3.08;;;7.90;53.90;;;;;;6214182;28;20505;-71
2022/02/12 02:29:01;;;;;;;4.80;2.72;;;7.90;53.90;;;;;;6214806;28;20121;-71
2022/02/12 02:32:02;;;;;;;7.47;3.30;;;7.90;53.80;;;;;;6216884;28;20351;-71
2022/02/12 02:35:03;;;;;;;10.35;3.10;;;7.90;53.70;;;;;;6215398;28;20057;-71
2022/02/12 02:38:27;;;;;;;8.18;3.45;;;7.90;53.70;;;;;;6227676;28;20519;-71
2022/02/12 02:41:28;;;;;;;7.35;3.67;;;7.90;53.90;;;;;;6233938;28;20619;-71
2022/02/12 02:44:29;;;;;;;8.80;4.05;;;7.80;53.90;;;;;;6216482;28;20018;-71
2022/02/12 02:47:33;;;;;;;8.63;3.90;;;7.80;54.10;;;;;;6214431;28;20038;-72
2022/02/12 02:57:15;;;;;;;7.82;3.42;;;7.70;54.30;;;;;;6215700;28;20099;-71
2022/02/12 03:00:16;;;;;;;6.28;3.15;;;7.60;54.40;;;;;;6216363;28;20494;-73
2022/02/12 03:03:17;;;;;;;8.52;3.70;;;7.60;54.50;;;;;;6213414;28;20065;-71
2022/02/12 03:06:20;;;;;;;10.82;4.43;;;7.60;54.60;;;;;;6214064;28;20454;-71
2022/02/12 03:09:21;;;;;;;6.85;3.30;;;7.60;54.60;;;;;;6214193;28;20528;-71
2022/02/12 03:12:22;;;;;;;9.20;3.90;;;7.50;54.60;;;;;;6211558;28;20053;-70
2022/02/12 03:15:23;;;;;;;6.45;3.42;;;7.50;54.60;;;;;;6214693;28;20030;-71
2022/02/12 03:18:25;;;;;;;4.95;3.55;;;7.50;54.70;;;;;;6229395;28;20122;-70
2022/02/12 03:21:26;;;;;;;7.85;3.40;;;7.50;54.80;;;;;;6211287;28;20415;-71
2022/02/12 03:24:27;;;;;;;9.52;4.07;;;7.40;54.80;;;;;;6212533;28;20040;-71
2022/02/12 03:27:28;;;;;;;10.63;4.10;;;7.40;54.90;;;;;;6231484;28;20084;-71
2022/02/12 03:30:31;;;;;;;6.07;3.35;;;7.40;55.00;;;;;;6214231;28;20096;-71
2022/02/12 03:33:32;;;;;;;9.57;4.18;;;7.40;55.10;;;;;;6198506;28;20022;-71
2022/02/12 03:36:33;;;;;;;13.48;3.70;;;7.40;55.10;;;;;;6216027;28;20398;-71
2022/02/12 03:39:34;;;;;;;13.43;3.97;;;7.40;55.10;;;;;;6210115;28;20053;-71
2022/02/12 03:42:35;;;;;;;8.18;3.15;;;7.30;55.20;;;;;;6212780;28;20029;-71
2022/02/12 03:45:36;;;;;;;11.55;3.60;;;7.30;55.30;;;;;;6215597;28;20077;-72
2022/02/12 03:48:37;;;;;;;9.90;3.83;;;7.30;55.40;;;;;;6230170;28;20032;-72
2022/02/12 03:51:38;;;;;;;9.15;3.88;;;7.20;55.50;;;;;;6226245;28;20018;-71
2022/02/12 03:54:39;;;;;;;10.13;4.13;;;7.20;55.50;;;;;;6214831;28;20053;-71
2022/02/12 03:58:06;;;;;;;10.32;3.85;;;7.20;55.60;;;;;;6213359;28;20033;-71
2022/02/12 04:01:07;;;;;;;6.68;3.60;;;7.20;55.70;;;;;;6212049;28;20088;-72
2022/02/12 04:04:08;;;;;;;6.65;3.28;;;7.20;55.70;;;;;;6214188;28;20104;-71
2022/02/12 04:07:09;;;;;;;6.97;3.75;;;7.20;55.70;;;;;;6213446;28;20117;-71
2022/02/12 04:10:16;;;;;;;9.10;2.63;;;7.20;55.70;;;;;;6215053;28;20108;-72
2022/02/12 04:13:18;;;;;;;10.40;3.40;;;7.20;55.70;;;;;;6213176;28;20572;-71
2022/02/12 04:16:19;;;;;;;10.55;3.63;;;7.20;55.70;;;;;;6196612;28;20025;-72
2022/02/12 04:19:20;;;;;;;10.43;3.38;;;7.20;55.70;;;;;;6211605;28;20370;-72
2022/02/12 04:22:21;;;;;;;9.95;3.25;;;7.20;55.70;;;;;;6213695;28;20081;-72
2022/02/12 04:25:23;;;;;;;9.60;3.95;;;7.20;55.70;;;;;;6213389;28;20494;-73
2022/02/12 04:28:24;;;;;;;6.18;3.65;;;7.20;55.70;;;;;;6213290;28;20025;-71
2022/02/12 04:31:25;;;;;;;7.82;3.72;;;7.20;55.70;;;;;;6212719;28;20452;-72
2022/02/12 04:34:26;;;;;;;8.05;3.20;;;7.20;55.70;;;;;;6211054;28;20026;-72
2022/02/12 04:37:58;;;;;;;9.35;3.85;;;7.10;55.70;;;;;;6214545;28;20018;-72
2022/02/12 04:41:00;;;;;;;8.55;3.58;;;7.10;55.70;;;;;;6217600;28;20026;-71
2022/02/12 04:44:01;;;;;;;6.13;2.90;;;7.10;55.80;;;;;;6214627;28;20026;-71
2022/02/12 04:47:02;;;;;;;10.45;3.83;;;7.10;56.50;;;;;;6212361;28;20547;-73
2022/02/12 04:50:05;;;;;;;6.35;2.95;;;7.00;55.90;;;;;;6210146;28;20037;-72
2022/02/12 04:53:06;;;;;;;8.23;2.88;;;7.00;56.00;;;;;;6213478;28;20172;-72
2022/02/12 04:56:06;;;;;;;5.22;3.38;;;7.00;56.00;;;;;;6213068;28;20013;-72
2022/02/12 04:59:08;;;;;;;8.20;2.90;;;7.00;56.00;;;;;;6208844;28;20027;-71
2022/02/12 05:02:10;;;;;;;10.80;3.42;;;7.00;56.00;;;;;;6221496;28;20026;-71
2022/02/12 05:05:11;;;;;;;9.45;3.00;;;7.00;56.00;;;;;;6210025;28;20530;-71
2022/02/12 05:08:12;;;;;;;9.82;3.50;;;7.00;56.10;;;;;;6195569;28;20033;-71
2022/02/12 05:11:13;;;;;;;4.22;2.80;;;7.00;56.20;;;;;;6210970;28;20037;-71
2022/02/12 05:14:15;;;;;;;6.68;3.30;;;6.90;56.20;;;;;;6229037;28;20065;-70
2022/02/12 05:17:50;;;;;;;5.97;3.35;;;6.90;56.20;;;;;;6212859;28;20092;-71
2022/02/12 05:20:51;;;;;;;6.13;3.10;;;6.90;56.20;;;;;;6210209;28;20029;-71
2022/02/12 05:23:52;;;;;;;5.82;2.55;;;6.90;56.20;;;;;;6214527;28;20018;-70
2022/02/12 05:26:53;;;;;;;4.95;2.92;;;6.90;56.20;;;;;;6214297;28;20045;-72
2022/02/12 05:29:56;;;;;;;8.30;3.35;;;6.90;56.40;;;;;;6212586;28;20806;-71
2022/02/12 05:32:58;;;;;;;5.38;3.05;;;6.90;56.40;;;;;;6203409;28;20022;-73
2022/02/12 05:35:59;;;;;;;6.22;2.60;;;6.90;56.40;;;;;;6218448;28;20028;-70
2022/02/12 05:38:59;;;;;;;11.40;2.83;;;6.90;56.40;;;;;;6231606;28;20026;-72
2022/02/12 05:42:00;;;;;;;7.03;3.92;;;6.90;56.40;;;;;;6232013;28;20117;-72
2022/02/12 05:45:01;;;;;;;7.95;2.85;;;6.90;56.40;;;;;;6216476;28;20125;-71
2022/02/12 05:48:02;;;;;;;7.75;3.45;;;6.90;56.40;;;;;;6217754;28;20606;-71
2022/02/12 05:51:03;;;;;;;10.18;3.25;;;6.90;56.50;;;;;;6231066;28;20103;-71
2022/02/12 05:54:05;;;;;;;6.88;3.35;;;6.80;56.60;;;;;;6215313;28;20033;-71
2022/02/12 05:57:40;;;;;;;8.85;3.70;;;6.80;56.60;;;;;;6217547;28;20128;-72
2022/02/12 06:00:40;;;;;;;9.57;4.43;;;6.80;56.70;;;;;;6215260;28;20057;-71
2022/02/12 06:03:41;;;;;;;7.78;4.25;;;6.70;56.70;;;;;;6217360;28;20022;-71
2022/02/12 06:06:42;;;;;;;6.50;4.25;;;6.70;56.80;;;;;;6214647;28;20026;-71
2022/02/12 06:09:44;;;;;;;10.38;5.55;;;6.70;56.80;;;;;;6200079;28;20055;-71
2022/02/12 06:12:45;;;;;;;11.60;5.80;;;6.70;56.90;;;;;;6215028;28;20022;-71
2022/02/12 06:15:46;;;;;;;14.45;7.72;;;6.60;56.90;;;;;;6216047;28;20041;-71
2022/02/12 06:18:47;;;;;;;15.98;7.10;;;6.60;57.00;;;;;;6231630;28;20061;-71
2022/02/12 06:21:48;;;;;;;14.85;6.75;;;6.60;57.00;;;;;;6217582;28;20501;-71
2022/02/12 06:24:48;;;;;;;10.68;6.88;;;6.60;57.00;;;;;;6217462;28;20406;-71
2022/02/12 06:27:49;;;;;;;14.13;8.68;;;6.60;57.00;;;;;;6230039;28;20048;-71
2022/02/12 06:30:50;;;;;;;15.43;7.47;;;6.60;57.00;;;;;;6214870;28;20109;-71
2022/02/12 06:33:52;;;;;;;12.98;5.35;;;6.60;57.00;;;;;;6215633;28;20033;-71
2022/02/12 06:37:28;;;;;;;10.07;3.70;;;6.60;57.00;;;;;;6215455;28;20112;-71
2022/02/12 06:40:29;;;;;;;10.80;3.83;;;6.60;57.00;;;;;;6215473;28;20509;-72
2022/02/12 06:43:29;;;;;;;6.45;3.10;;;6.60;56.90;;;;;;6213359;28;20029;-72
2022/02/12 06:46:30;;;;;;;7.18;3.72;;;6.60;56.90;;;;;;6212232;28;20038;-72
2022/02/12 06:49:31;;;;;;;8.27;3.70;;;6.70;56.90;;;;;;6213578;28;20040;-72
2022/02/12 06:52:32;;;;;;;8.57;3.40;;;6.70;56.80;;;;;;6196799;28;20172;-70
2022/02/12 06:55:33;;;;;;;4.60;2.90;;;6.70;56.80;;;;;;6213654;28;20026;-72
2022/02/12 06:58:34;;;;;;;6.07;2.85;;;6.80;56.70;;;;;;6212502;28;20029;-71
2022/02/12 07:01:35;;;;;;;9.38;3.80;;;6.80;56.70;;;;;;6213555;28;20036;-70
2022/02/12 07:04:36;;;;;;;8.52;4.03;;;6.80;56.50;;;;;;6230515;28;20562;-72
2022/02/12 07:07:48;;;;;;;5.53;3.13;;;6.80;56.50;;;;;;6228787;28;20116;-71
2022/02/12 07:10:49;;;;;;;6.78;3.28;;;6.70;56.50;;;;;;6215497;28;20014;-72
2022/02/12 07:13:49;;;;;;;6.93;3.30;;;6.70;56.40;;;;;;6214498;28;20018;-70
2022/02/12 07:17:18;;;;;;;7.80;3.25;;;6.70;56.50;;;;;;6209953;28;20026;-72
2022/02/12 07:20:20;;;;;;;;;;;6.60;56.50;;;;;;6210612;28;20026;-71
2022/02/12 07:23:21;;;;;;;5.10;2.70;;;6.60;56.70;;;;;;6215954;28;19968;-71
2022/02/12 07:26:22;;;;;;;7.32;3.60;;;6.60;56.70;;;;;;6214255;28;20069;-70
2022/02/12 07:29:23;;;;;;;9.65;3.72;;;6.60;56.70;;;;;;6215042;28;20026;-72
2022/02/12 07:32:24;;;;;;;3.30;2.30;;;6.60;56.80;;;;;;6212483;28;20049;-72
2022/02/12 07:35:25;;;;;;;6.93;3.80;;;6.60;56.80;;;;;;6211707;28;20294;-70
2022/02/12 07:38:26;;;;;;;8.70;3.80;;;6.60;56.80;;;;;;6209243;28;20026;-71
2022/02/12 07:41:32;;;;;;;7.78;3.10;;;6.50;56.90;;;;;;6211087;28;20030;-70
2022/02/12 07:44:34;;;;;;;8.43;3.95;;;6.50;57.00;;;;;;6213682;28;20509;-71
2022/02/12 07:47:39;;;;;;;6.55;3.85;;;6.50;56.90;;;;;;6210667;28;20053;-70
2022/02/12 07:50:40;;;;;;;9.35;3.65;;;6.40;57.00;;;;;;6206468;28;20105;-71
2022/02/12 07:53:41;;;;;;;5.85;3.50;;;6.40;57.10;;;;;;6228029;28;20438;-70
2022/02/12 07:57:09;;;;;;;9.98;3.78;;;6.40;57.20;;;;;;6214767;28;20041;-71
2022/02/12 08:00:11;;;;;;;9.05;3.92;;;6.50;57.30;;;;;;6229185;28;20029;-70
2022/02/12 08:03:15;;;;;;;9.02;3.78;;;6.50;57.20;;;;;;6212752;28;20033;-72
2022/02/12 08:09:35;;;;;;;8.77;4.38;;;6.60;57.10;;;;;;6213255;28;20041;-71
2022/02/12 08:12:36;;;;;;;11.45;3.35;;;6.70;57.10;;;;;;6212973;28;20014;-71
2022/02/12 08:15:37;;;;;;;8.52;3.90;;;6.70;57.10;;;;;;6213420;28;20519;-72
2022/02/12 08:18:38;;;;;;;6.80;4.07;;;6.80;57.00;;;;;;6213249;28;20102;-72
2022/02/12 08:21:39;;;;;;;7.78;3.63;;;6.90;57.00;;;;;;6213273;28;20446;-71
2022/02/12 08:24:40;;;;;;;7.60;3.72;;;7.00;56.90;;;;;;6217216;28;20062;-71
2022/02/12 08:27:41;;;;;;;16.30;3.50;;;7.10;56.80;;;;;;6217064;28;20030;-72
2022/02/12 08:30:42;;;;;;;11.48;3.95;;;7.10;56.50;;;;;;6213845;28;20575;-73
2022/02/12 08:33:43;;;;;;;7.97;3.40;;;7.20;56.40;;;;;;6211171;28;20040;-72
2022/02/12 08:37:00;;;;;;;9.35;3.63;;;7.30;56.30;;;;;;6212661;28;20030;-71
2022/02/12 08:40:01;;;;;;;7.07;3.38;;;7.40;56.00;;;;;;6213257;28;20026;-70
2022/02/12 08:43:02;;;;;;;4.53;3.22;;;7.50;55.80;;;;;;6220907;28;20034;-72
2022/02/12 08:46:03;;;;;;;8.60;3.65;;;7.60;55.80;;;;;;6210350;28;20046;-72
2022/02/12 08:49:04;;;;;;;8.55;3.38;;;7.70;55.70;;;;;;6214137;28;20045;-73
2022/02/12 08:52:05;;;;;;;5.97;3.72;;;7.90;55.50;;;;;;6210164;28;20041;-73
2022/02/12 08:55:08;;;;;;;12.82;3.65;;;8.00;55.10;;;;;;6212255;28;20038;-73
2022/02/12 08:58:09;;;;;;;8.88;3.88;;;8.10;54.90;;;;;;6214976;28;20026;-72
2022/02/12 09:01:10;;;;;;;12.27;4.35;;;8.30;54.50;;;;;;6216585;28;20080;-73
2022/02/12 09:04:12;;;;;;;8.55;3.90;;;8.40;54.40;;;;;;6216403;28;20030;-73
2022/02/12 09:07:13;;;;;;;8.65;4.28;;;8.60;54.10;;;;;;6217210;28;20053;-71
2022/02/12 09:10:16;;;;;;;7.57;3.70;;;8.80;53.70;;;;;;6213813;28;20056;-72
2022/02/12 09:13:17;;;;;;;11.82;4.60;;;8.90;53.40;;;;;;6231440;28;20033;-71
2022/02/12 09:16:49;;;;;;;8.13;4.90;;;9.00;53.00;;;;;;6213308;28;20087;-72
2022/02/12 09:19:50;;;;;;;9.30;4.35;;;9.10;52.80;;;;;;6214115;28;20041;-72
2022/02/12 09:22:51;;;;;;;12.85;4.75;;;9.20;52.60;;;;;;6216534;28;20025;-72
2022/02/12 09:25:52;;;;;;;10.02;4.30;;;9.30;52.30;;;;;;6229371;28;20061;-72
2022/02/12 09:28:53;;;;;;;5.68;3.13;;;9.30;52.00;;;;;;6216231;28;20037;-72
2022/02/12 09:31:54;;;;;;;8.48;4.47;;;9.40;51.80;;;;;;6217571;28;20503;-72
2022/02/12 09:34:55;;;;;;;6.63;3.55;;;9.50;51.40;;;;;;6232425;28;20037;-73
2022/02/12 09:37:56;;;;;;;6.22;3.47;;;9.50;51.30;;;;;;6213808;28;20109;-72
2022/02/12 09:40:57;;;;;;;8.27;4.20;;;9.60;51.30;;;;;;6217555;28;20559;-72
2022/02/12 09:43:58;;;;;;;10.98;3.85;;;9.70;50.90;;;;;;6218188;28;20468;-73
2022/02/12 09:47:23;;;;;;;6.65;3.50;;;9.70;50.90;;;;;;6212502;28;20034;-72
2022/02/12 09:50:24;;;;;;;11.52;3.67;;;9.70;50.60;;;;;;6214496;28;20363;-72
2022/02/12 09:53:28;;;;;;;7.00;3.70;;;9.80;50.60;;;;;;6217670;28;20033;-72
2022/02/12 09:56:41;;;;;;;29.10;11.23;;;9.80;50.60;;;;;;6211731;28;20024;-72
2022/02/12 09:59:44;;;;;;;28.40;10.85;;;9.90;50.50;;;;;;6215359;28;20056;-72
2022/02/12 10:02:46;;;;;;;7.10;3.55;;;10.00;50.40;;;;;;6214642;28;20037;-72
2022/02/12 10:05:53;;;;;;;13.68;7.22;;;10.10;50.30;;;;;;6231565;28;20152;-73
2022/02/12 10:09:05;;;;;;;16.75;7.30;;;10.10;49.90;;;;;;6212405;28;20041;-73
2022/02/12 10:12:06;;;;;;;16.05;7.45;;;10.10;49.70;;;;;;6231185;28;20718;-72
2022/02/12 10:15:34;;;;;;;14.98;6.25;;;10.10;49.70;;;;;;6230360;28;20041;-74
2022/02/12 10:18:39;;;;;;;13.13;5.80;;;10.20;49.90;;;;;;6215766;28;20042;-74
2022/02/12 10:21:39;;;;;;;10.63;4.75;;;10.30;49.70;;;;;;6215515;28;20615;-73
2022/02/12 10:24:54;;;;;;;5.60;3.03;;;10.40;49.60;;;;;;6213950;28;20030;-74
2022/02/12 10:27:55;;;;;;;18.13;4.75;;;10.60;49.30;;;;;;6216662;28;20029;-72
2022/02/12 10:30:57;;;;;;;20.70;5.95;;;11.00;48.70;;;;;;6213740;28;20052;-72
2022/02/12 10:33:58;;;;;;;13.10;5.72;;;11.30;47.70;;;;;;6214547;28;20411;-72
2022/02/12 10:36:59;;;;;;;9.85;4.82;;;11.60;46.90;;;;;;6210237;28;20036;-72
2022/02/12 10:40:01;;;;;;;18.73;6.82;;;11.80;46.70;;;;;;6213862;28;20018;-72
2022/02/12 10:43:02;;;;;;;15.93;7.85;;;12.00;46.40;;;;;;6212505;28;20026;-72
2022/02/12 10:46:05;;;;;;;11.50;5.22;;;12.20;45.60;;;;;;6212934;28;20103;-72
2022/02/12 10:49:06;;;;;;;9.35;4.38;;;12.30;45.60;;;;;;6211307;28;20061;-72
2022/02/12 10:52:07;;;;;;;6.07;3.10;;;12.40;45.20;;;;;;6214733;28;20020;-72
2022/02/12 10:55:19;;;;;;;7.45;3.65;;;12.60;44.50;;;;;;6214885;28;20414;-73
2022/02/12 10:58:20;;;;;;;5.47;2.80;;;12.90;44.30;;;;;;6213456;28;20416;-73
2022/02/12 11:01:22;;;;;;;5.82;2.90;;;13.10;43.70;;;;;;6211530;28;20026;-72
2022/02/12 11:04:24;;;;;;;14.35;6.53;;;13.20;43.00;;;;;;6210698;28;20053;-72
2022/02/12 11:07:26;;;;;;;11.35;3.55;;;13.30;42.60;;;;;;6214568;28;20026;-73
2022/02/12 11:10:27;;;;;;;8.13;3.70;;;13.40;42.40;;;;;;6213218;28;20021;-73
2022/02/12 11:13:29;;;;;;;13.98;6.32;;;13.60;41.90;;;;;;6210427;28;20088;-73
2022/02/12 11:16:30;;;;;;;6.18;3.53;;;13.70;41.80;;;;;;6212848;28;20057;-73
2022/02/12 11:19:33;;;;;;;6.68;3.20;;;13.90;41.60;;;;;;6210765;28;20116;-71
2022/02/12 11:22:34;;;;;;;7.10;3.15;;;14.10;41.30;;;;;;6211914;28;20542;-73
2022/02/12 11:25:36;;;;;;;18.35;8.13;;;14.50;41.00;;;;;;6198291;28;20057;-73
2022/02/12 11:28:37;;;;;;;4.95;3.28;;;14.90;40.40;;;;;;6213697;28;20041;-71
2022/02/12 11:31:38;;;;;;;4.05;2.47;;;15.20;39.40;;;;;;6215254;28;20078;-71
2022/02/12 11:35:08;;;;;;;5.03;2.67;;;15.50;37.90;;;;;;6214201;28;20025;-71
2022/02/12 11:38:35;;;;;;;9.48;4.13;;;15.70;37.20;;;;;;6224078;28;20308;-72
2022/02/12 11:41:37;;;;;;;6.25;3.13;;;16.00;36.60;;;;;;6207441;28;20120;-72
2022/02/12 11:44:44;;;;;;;4.78;2.78;;;16.20;36.10;;;;;;6214439;28;20038;-72
2022/02/12 11:48:07;;;;;;;10.60;3.53;;;16.30;35.50;;;;;;6213802;28;20042;-72
2022/02/12 11:51:12;;;;;;;5.20;2.72;;;16.30;35.30;;;;;;6209968;28;20042;-72
2022/02/12 11:55:00;;;;;;;4.28;2.50;;;16.30;35.10;;;;;;6213041;28;20030;-72
2022/02/12 11:58:01;;;;;;;8.13;3.47;;;16.30;35.00;;;;;;6208477;28;20126;-72
2022/02/12 12:01:02;;;;;;;16.00;6.85;;;16.60;34.60;;;;;;6215273;28;20097;-72
2022/02/12 12:04:11;;;;;;;19.58;7.47;;;16.80;34.20;;;;;;6213888;28;20025;-73
2022/02/12 12:07:14;;;;;;;10.35;5.50;;;17.20;34.30;;;;;;6213929;28;20125;-71
2022/02/12 12:10:15;;;;;;;14.40;6.60;;;17.70;33.70;;;;;;6224962;28;20488;-71
2022/02/12 12:13:16;;;;;;;6.90;3.78;;;18.20;33.20;;;;;;6212819;28;20077;-72
2022/02/12 12:16:23;;;;;;;15.57;3.40;;;18.60;32.40;;;;;;6208463;28;20121;-72
2022/02/12 12:19:25;;;;;;;9.43;4.53;;;19.00;31.70;;;;;;6215979;28;20025;-72
2022/02/12 12:22:29;;;;;;;5.38;3.15;;;18.90;31.10;;;;;;6210118;28;20106;-71
2022/02/12 12:25:58;;;;;;;11.27;5.43;;;18.50;31.10;;;;;;6210808;28;20045;-73
2022/02/12 12:32:34;;;;;;;6.18;2.80;;;17.60;32.60;;;;;;6206751;28;20048;-74
2022/02/12 12:36:05;;;;;;;11.73;5.45;;;17.30;33.30;;;;;;6212792;28;20064;-73
2022/02/12 12:39:11;;;;;;;10.52;2.83;;;17.10;34.00;;;;;;6212071;28;20022;-72
2022/02/12 12:42:18;;;;;;;5.40;2.67;;;17.10;34.20;;;;;;6210317;28;20486;-72
2022/02/12 12:45:19;;;;;;;4.20;2.28;;;17.00;33.90;;;;;;6212438;28;20030;-73
2022/02/12 12:48:33;;;;;;;6.78;3.20;;;16.80;34.00;;;;;;6211791;28;20054;-72
2022/02/12 12:51:48;;;;;;;11.85;4.85;;;16.40;34.20;;;;;;6209464;28;20026;-72
2022/02/12 12:54:55;;;;;;;6.55;4.10;;;16.40;34.70;;;;;;6211018;28;20066;-72
2022/02/12 12:57:56;;;;;;;6.47;3.15;;;16.30;35.00;;;;;;6207970;28;20033;-73
2022/02/12 13:01:10;;;;;;;4.93;2.78;;;16.20;35.10;;;;;;6227077;28;20056;-71
2022/02/12 13:04:11;;;;;;;10.95;3.38;;;16.00;35.00;;;;;;6215076;28;20037;-71
2022/02/12 13:07:16;;;;;;;7.28;3.33;;;15.80;35.30;;;;;;6211171;28;20427;-72
2022/02/12 13:10:17;;;;;;;5.80;3.45;;;15.60;35.70;;;;;;6228461;28;20100;-72
2022/02/12 13:13:20;;;;;;;7.05;3.28;;;15.50;36.00;;;;;;6229364;28;20052;-72
2022/02/12 13:16:21;;;;;;;5.80;3.15;;;15.40;36.20;;;;;;6210765;28;20125;-72
2022/02/12 13:19:23;;;;;;;13.70;4.28;;;15.30;36.30;;;;;;6206069;28;20029;-71
2022/02/12 13:22:26;;;;;;;4.70;3.15;;;15.30;36.50;;;;;;6228983;28;20038;-71
2022/02/12 13:25:41;;;;;;;11.48;3.70;;;15.20;36.60;;;;;;6208812;28;20026;-72
2022/02/12 13:28:50;;;;;;;7.63;3.78;;;15.20;37.00;;;;;;6211814;28;20018;-71
2022/02/12 13:31:56;;;;;;;8.05;4.18;;;15.30;37.20;;;;;;6211282;28;20423;-71
2022/02/12 13:35:48;;;;;;;10.00;4.80;;;15.30;37.10;;;;;;6207464;28;20026;-76
2022/02/12 13:38:49;;;;;;;6.72;3.50;;;15.40;36.90;;;;;;6213204;28;20108;-74
2022/02/12 13:41:58;;;;;;;7.32;3.05;;;15.50;36.90;;;;;;6210480;28;20030;-72
2022/02/12 13:45:01;;;;;;;11.50;6.00;;;15.50;36.90;;;;;;6210947;28;20068;-73
2022/02/12 13:48:04;;;;;;;7.07;3.38;;;15.60;36.80;;;;;;6227634;28;20489;-74
2022/02/12 13:51:08;;;;;;;6.30;2.97;;;15.60;36.50;;;;;;6216251;28;20022;-73
2022/02/12 13:54:12;;;;;;;8.02;3.75;;;15.60;36.40;;;;;;6218369;28;20096;-74
2022/02/12 13:57:14;;;;;;;9.27;2.72;;;15.60;36.20;;;;;;6229429;28;20083;-73
2022/02/12 14:00:16;;;;;;;8.55;4.20;;;15.60;36.20;;;;;;6219447;28;20490;-74
2022/02/12 14:03:36;;;;;;;6.20;3.40;;;15.70;36.30;;;;;;6232717;28;20021;-74
2022/02/12 14:06:38;;;;;;;10.02;4.93;;;15.70;36.30;;;;;;6222833;28;20026;-74
2022/02/12 14:09:55;;;;;;;9.95;4.63;;;15.80;36.20;;;;;;6219514;28;20135;-74
2022/02/12 14:12:58;;;;;;;16.58;6.55;;;15.90;36.30;;;;;;6229330;28;20374;-73
2022/02/12 14:15:59;;;;;;;11.07;4.70;;;15.90;36.20;;;;;;6221586;28;20098;-74
2022/02/12 14:19:01;;;;;;;6.35;3.67;;;16.00;36.20;;;;;;6421866;23;20462;-75
2022/02/12 14:22:02;;;;;;;9.50;3.17;;;16.00;36.20;;;;;;6237931;28;20084;-72
2022/02/12 14:25:04;;;;;;;7.25;2.95;;;16.00;36.20;;;;;;6217990;28;20024;-73
2022/02/12 14:28:05;;;;;;;4.53;2.38;;;16.00;36.30;;;;;;6218456;28;20176;-73
2022/02/12 14:31:06;;;;;;;4.13;2.78;;;15.90;36.30;;;;;;6217468;28;20029;-73
2022/02/12 14:34:07;;;;;;;5.22;2.60;;;15.90;36.30;;;;;;6225072;28;20060;-73
2022/02/12 14:37:09;;;;;;;5.88;3.05;;;15.90;36.30;;;;;;6220562;28;20033;-74
2022/02/12 14:40:11;;;;;;;7.95;3.78;;;15.90;36.40;;;;;;6219417;28;20175;-74
2022/02/12 14:43:12;;;;;;;5.13;3.00;;;15.90;36.50;;;;;;6216512;28;20056;-74
2022/02/12 14:46:13;;;;;;;8.48;3.15;;;15.90;36.50;;;;;;6221269;28;20488;-74
2022/02/12 14:49:14;;;;;;;6.30;3.30;;;15.90;36.50;;;;;;6203655;28;20048;-75
2022/02/12 14:52:15;;;;;;;8.75;3.53;;;15.90;36.50;;;;;;6218815;28;20434;-74
2022/02/12 14:55:38;;;;;;;4.97;2.72;;;15.90;36.60;;;;;;6201563;28;20046;-75
2022/02/12 14:58:39;;;;;;;6.65;2.83;;;15.90;36.60;;;;;;6220527;28;20088;-75
2022/02/12 15:01:40;;;;;;;10.02;2.97;;;15.80;36.50;;;;;;6215246;28;20366;-74
2022/02/12 15:04:41;;;;;;;4.82;2.67;;;15.80;36.70;;;;;;6217494;28;20065;-74
2022/02/12 15:07:42;;;;;;;6.95;2.80;;;15.70;36.60;;;;;;6219553;28;20076;-73
2022/02/12 15:10:43;;;;;;;5.22;2.78;;;15.70;36.70;;;;;;6219227;28;20034;-72
2022/02/12 15:13:44;;;;;;;6.90;2.85;;;15.70;36.70;;;;;;6231726;28;20173;-73
2022/02/12 15:16:45;;;;;;;5.32;2.75;;;15.70;36.70;;;;;;6216044;28;20053;-73
2022/02/12 15:19:46;;;;;;;6.28;2.78;;;15.60;36.60;;;;;;6218365;28;20038;-73
2022/02/12 15:22:47;;;;;;;11.40;2.80;;;15.60;36.50;;;;;;6216445;28;20133;-73
2022/02/12 15:25:48;;;;;;;6.00;2.85;;;15.50;36.50;;;;;;6214454;28;20463;-73
2022/02/12 15:28:49;;;;;;;9.07;2.88;;;15.50;36.40;;;;;;6201357;28;20374;-73
2022/02/12 15:31:50;;;;;;;6.13;2.60;;;15.50;36.40;;;;;;6226484;28;20058;-72
2022/02/12 15:35:28;;;;;;;6.50;2.80;;;15.40;36.30;;;;;;6203272;28;20026;-74
2022/02/12 15:38:31;;;;;;;6.70;2.58;;;15.40;36.40;;;;;;6209388;28;20026;-74
2022/02/12 15:41:32;;;;;;;7.53;2.92;;;15.30;36.30;;;;;;6215419;28;20041;-74
2022/02/12 15:44:33;;;;;;;6.63;3.38;;;15.30;36.50;;;;;;6215977;28;20436;-74
2022/02/12 15:47:34;;;;;;;5.85;3.22;;;15.20;36.60;;;;;;6214588;28;20108;-73
2022/02/12 15:50:34;;;;;;;6.15;2.70;;;15.10;36.70;;;;;;6206658;28;20046;-75
2022/02/12 15:53:35;;;;;;;6.68;2.70;;;15.10;36.80;;;;;;6222702;28;20029;-73
2022/02/12 15:56:36;;;;;;;4.55;2.70;;;15.10;36.90;;;;;;6211494;28;20034;-72
2022/02/12 15:59:37;;;;;;;8.40;2.90;;;15.10;37.00;;;;;;6206550;28;20121;-73
2022/02/12 16:02:38;;;;;;;6.03;3.30;;;15.00;37.00;;;;;;6206699;28;20121;-74
2022/02/12 16:05:41;;;;;;;6.78;3.05;;;15.10;37.10;;;;;;6209115;28;20060;-73
2022/02/12 16:08:43;;;;;;;6.07;3.35;;;15.00;37.10;;;;;;6197946;28;20045;-73
2022/02/12 16:11:46;;;;;;;5.05;2.40;;;15.00;37.20;;;;;;6210568;28;20037;-73
2022/02/12 16:15:18;;;;;;;4.07;2.65;;;15.00;37.20;;;;;;6207690;28;20049;-73
2022/02/12 16:18:19;;;;;;;9.65;4.10;;;15.00;37.20;;;;;;6213555;28;20018;-74